Brak ostrzeżeń pogodowych   -   Brak ostrzeżeń pogodowych

Raporty Pogodowe z Lotnisk

 

EPKK - Krakow/Balice, Poland
Odległość od stacji: Zd 81km
Aktualizacja: 14/08/2020 13:30
Bezchmurnie
Bezchmurnie
 Wiatr z Ws
Wiatr: Ws 19 km/h
Temperatura: 28°C
Punkt Rosy: 11°C
Wilgotność Względna: 35%
Ciśnienie Względne: 1014 hPa
Podsumowanie: Bezchmurnie
Widoczność: większa niż 10 km
2020/08/14 11:30 EPKK 141130Z 09010KT 050V110 CAVOK 28/11 Q1014
EPRZ - Rzeszow/Jasionka, Poland
Odległość od stacji: Ws 81km
Aktualizacja: 14/08/2020 13:30
Bezchmurnie
Bezchmurnie
 Wiatr z WsPdWs
Wiatr: WsPdWs 22 km/h
Temperatura: 27°C
Punkt Rosy: 10°C
Wilgotność Względna: 34%
Ciśnienie Względne: 1015 hPa
Podsumowanie: Bezchmurnie
Widoczność: większa niż 10 km
2020/08/14 11:30 EPRZ 141130Z 12012KT 090V150 CAVOK 27/10 Q1015
 
EPKT - Katowice/Pyrzowice, Poland
Odległość od stacji: ZdPnZd 141km
Aktualizacja: 14/08/2020 13:30
Bezchmurnie
Bezchmurnie
 Wiatr z Ws
Wiatr: Ws 17 km/h
Temperatura: 29°C
Punkt Rosy: 9°C
Wilgotność Względna: 29%
Ciśnienie Względne: 1014 hPa
Podsumowanie: Bezchmurnie
Widoczność: większa niż 10 km
2020/08/14 11:30 EPKT 141130Z 10009KT 070V160 CAVOK 29/09 Q1014
EPWA - Warsaw/Okecie, Poland
Odległość od stacji: Pn 240km
Aktualizacja: 14/08/2020 13:30
Bezchmurnie
Bezchmurnie
 Wiatr z PdPdWs
Wiatr: PdPdWs 11 km/h
Temperatura: 28°C
Punkt Rosy: 11°C
Wilgotność Względna: 35%
Ciśnienie Względne: 1015 hPa
Podsumowanie: Bezchmurnie
Widoczność: większa niż 10 km
2020/08/14 11:30 EPWA 141130Z 15006KT 110V200 CAVOK 28/11 Q1015 NOSIG
 
EPLL - Lodz/Lublinek, Poland
Odległość od stacji: PnPnZd 218km
Aktualizacja: 14/08/2020 13:30
Bezchmurnie
Bezchmurnie
 Wiatr z Ws
Wiatr: Ws 11 km/h
Temperatura: 28°C
Punkt Rosy: 10°C
Wilgotność Względna: 32%
Ciśnienie Względne: 1014 hPa
Podsumowanie: Bezchmurnie
Widoczność: większa niż 10 km
2020/08/14 11:30 EPLL 141130Z 10006KT 030V150 CAVOK 28/10 Q1014
EPWR - Wroclaw/Strachowice, Poland
Odległość od stacji: ZdPnZd 311km
Aktualizacja: 14/08/2020 13:30
Bezchmurnie
Bezchmurnie
 Wiatr z WsPdWs
Wiatr: WsPdWs 13 km/h
Temperatura: 29°C
Heat Index: 28°C
Punkt Rosy: 14°C
Wilgotność Względna: 40%
Ciśnienie Względne: 1013 hPa
Podsumowanie: Bezchmurnie
Widoczność: większa niż 10 km
2020/08/14 11:30 EPWR 141130Z 12007KT 080V140 CAVOK 29/14 Q1013
 
EPGD - Gdansk/Rebiechowo, Poland
Odległość od stacji: PnZd 553km
Aktualizacja: 14/08/2020 13:30
Bezchmurnie
Bezchmurnie
 Wiatr z PdPdWs
Wiatr: PdPdWs 13 km/h
Temperatura: 27°C
Punkt Rosy: 11°C
Wilgotność Względna: 37%
Ciśnienie Względne: 1015 hPa
Podsumowanie: Bezchmurnie
Widoczność: większa niż 10 km
2020/08/14 11:30 EPGD 141130Z 15007KT 090V210 CAVOK 27/11 Q1015
EPSC - Szczecin/Goleniow, Poland
Odległość od stacji: ZdPnZd 635km
Aktualizacja: 14/08/2020 13:30
Bezchmurnie
Bezchmurnie
 Wiatr z varies
Wiatr: varies 11 km/h
Temperatura: 29°C
Punkt Rosy: 9°C
Wilgotność Względna: 29%
Ciśnienie Względne: 1013 hPa
Podsumowanie: Bezchmurnie
Widoczność: większa niż 10 km
2020/08/14 11:30 EPSC 141130Z VRB06KT CAVOK 29/09 Q1013